createdAt,value
2017-07-30T00:00:07.717Z,821.06
2017-07-30T00:01:08.334Z,821.06
2017-07-30T00:02:09.252Z,821.05
2017-07-30T00:03:09.867Z,821.06
2017-07-30T00:04:10.484Z,821.02
2017-07-30T00:05:11.104Z,821.03
2017-07-30T00:06:11.720Z,821.00
2017-07-30T00:07:12.637Z,821.00
2017-07-30T00:08:13.255Z,821.00
2017-07-30T00:09:13.873Z,821.01
2017-07-30T00:10:14.525Z,821.03
2017-07-30T00:11:15.147Z,820.99
2017-07-30T00:12:16.015Z,820.98
2017-07-30T00:13:16.637Z,820.98
2017-07-30T00:14:17.288Z,821.03
2017-07-30T00:15:17.912Z,820.99
2017-07-30T00:16:18.526Z,821.01
2017-07-30T00:17:19.400Z,821.01
2017-07-30T00:18:20.011Z,821.02
2017-07-30T00:19:20.628Z,821.05
2017-07-30T00:20:21.250Z,821.06
2017-07-30T00:21:21.865Z,821.05
2017-07-30T00:22:22.766Z,821.04
2017-07-30T00:23:23.382Z,821.05
2017-07-30T00:24:23.999Z,821.02
2017-07-30T00:25:24.622Z,821.08
2017-07-30T00:26:25.270Z,821.07
2017-07-30T00:27:26.143Z,821.04
2017-07-30T00:28:26.757Z,821.05
2017-07-30T00:29:27.374Z,821.06
2017-07-30T00:30:27.991Z,820.98
2017-07-30T00:31:28.607Z,820.96
2017-07-30T00:32:29.524Z,820.92
2017-07-30T00:33:30.442Z,820.90
2017-07-30T00:34:31.059Z,820.93
2017-07-30T00:35:31.681Z,820.90
2017-07-30T00:36:32.302Z,820.97
2017-07-30T00:37:32.916Z,820.95
2017-07-30T00:38:33.782Z,820.95
2017-07-30T00:39:34.399Z,820.93
2017-07-30T00:40:35.264Z,820.94
2017-07-30T00:41:36.182Z,820.92
2017-07-30T00:42:36.799Z,820.92
2017-07-30T00:43:37.415Z,820.93
2017-07-30T00:44:38.037Z,820.96
2017-07-30T00:45:38.651Z,820.97
2017-07-30T00:46:39.518Z,820.95
2017-07-30T00:47:40.136Z,821.01
2017-07-30T00:48:40.760Z,821.00
2017-07-30T00:49:41.373Z,821.00
2017-07-30T00:50:42.274Z,820.93
2017-07-30T00:51:42.897Z,820.95
2017-07-30T00:52:43.510Z,820.95
2017-07-30T00:53:44.129Z,820.93
2017-07-30T00:54:45.003Z,820.95
2017-07-30T00:55:45.623Z,820.95
2017-07-30T00:56:46.239Z,820.96
2017-07-30T00:57:46.889Z,820.96
2017-07-30T00:58:47.507Z,820.98
2017-07-30T00:59:48.421Z,820.99
2017-07-30T01:00:49.043Z,820.96
2017-07-30T01:01:49.659Z,820.99
2017-07-30T01:02:50.276Z,820.96
2017-07-30T01:03:50.894Z,820.91
2017-07-30T01:04:51.797Z,820.93
2017-07-30T01:05:52.416Z,820.99
2017-07-30T01:06:53.038Z,820.93
2017-07-30T01:07:53.657Z,820.94
2017-07-30T01:08:54.271Z,820.96
2017-07-30T01:09:55.187Z,820.92
2017-07-30T01:10:56.054Z,820.88
2017-07-30T01:11:56.674Z,820.92
2017-07-30T01:12:57.330Z,820.92
2017-07-30T01:13:57.946Z,820.90
2017-07-30T01:14:58.604Z,820.87
2017-07-30T01:15:59.524Z,820.92
2017-07-30T01:17:00.140Z,820.86
2017-07-30T01:18:00.757Z,820.87
2017-07-30T01:19:01.383Z,820.83
2017-07-30T01:20:01.994Z,820.86
2017-07-30T01:21:02.918Z,820.88
2017-07-30T01:22:03.534Z,820.86
2017-07-30T01:23:04.157Z,820.84
2017-07-30T01:24:04.771Z,820.79
2017-07-30T01:25:05.393Z,820.80
2017-07-30T01:26:06.308Z,820.79
2017-07-30T01:27:06.923Z,820.78
2017-07-30T01:28:07.541Z,820.78
2017-07-30T01:29:08.162Z,820.77
2017-07-30T01:30:08.782Z,820.76
2017-07-30T01:31:09.645Z,820.78
2017-07-30T01:32:10.260Z,820.74
2017-07-30T01:33:10.878Z,820.73
2017-07-30T01:34:11.497Z,820.71
2017-07-30T01:35:12.154Z,820.72
2017-07-30T01:36:13.024Z,820.70
2017-07-30T01:37:13.639Z,820.69
2017-07-30T01:38:14.262Z,820.65
2017-07-30T01:39:14.881Z,820.65
2017-07-30T01:40:15.493Z,820.64
2017-07-30T01:41:16.360Z,820.62
2017-07-30T01:42:16.982Z,820.67
2017-07-30T01:43:17.638Z,820.63
2017-07-30T01:44:18.251Z,820.62
2017-07-30T01:45:18.874Z,820.64
2017-07-30T01:46:19.734Z,820.61
2017-07-30T01:47:20.388Z,820.57
2017-07-30T01:48:21.040Z,820.57
2017-07-30T01:49:21.657Z,820.59
2017-07-30T01:50:22.273Z,820.58
2017-07-30T01:51:23.140Z,820.59
2017-07-30T01:52:23.763Z,820.57
2017-07-30T01:53:24.412Z,820.60
2017-07-30T01:54:25.029Z,820.62
2017-07-30T01:55:25.644Z,820.64
2017-07-30T01:56:26.562Z,820.63
2017-07-30T01:57:27.182Z,820.61
2017-07-30T01:58:27.797Z,820.67
2017-07-30T01:59:28.457Z,820.63
2017-07-30T02:00:29.065Z,820.64
2017-07-30T02:01:29.932Z,820.66
2017-07-30T02:02:30.548Z,820.59
2017-07-30T02:03:31.199Z,820.65
2017-07-30T02:04:31.822Z,820.60
2017-07-30T02:05:32.436Z,820.62
2017-07-30T02:06:33.308Z,820.61
2017-07-30T02:07:34.254Z,820.61
2017-07-30T02:08:35.119Z,820.59
2017-07-30T02:09:35.736Z,820.60
2017-07-30T02:10:36.352Z,820.60
2017-07-30T02:11:36.969Z,820.64
2017-07-30T02:12:37.588Z,820.63
2017-07-30T02:13:38.456Z,820.60
2017-07-30T02:14:39.074Z,820.64
2017-07-30T02:15:39.724Z,820.62
2017-07-30T02:16:40.342Z,820.57
2017-07-30T02:17:40.963Z,820.58
2017-07-30T02:18:41.832Z,820.55
2017-07-30T02:19:42.452Z,820.56
2017-07-30T02:20:43.069Z,820.56
2017-07-30T02:21:43.682Z,820.56
2017-07-30T02:22:44.300Z,820.57
2017-07-30T02:23:45.168Z,820.55
2017-07-30T02:24:45.787Z,820.51
2017-07-30T02:25:46.403Z,820.54
2017-07-30T02:26:47.020Z,820.56
2017-07-30T02:27:47.642Z,820.56
2017-07-30T02:28:48.542Z,820.54
2017-07-30T02:29:49.166Z,820.51
2017-07-30T02:30:49.783Z,820.50
2017-07-30T02:31:50.403Z,820.51
2017-07-30T02:32:51.028Z,820.49
2017-07-30T02:33:51.924Z,820.53
2017-07-30T02:34:52.543Z,820.51
2017-07-30T02:35:53.159Z,820.50
2017-07-30T02:36:54.076Z,820.50
2017-07-30T02:37:54.697Z,820.49
2017-07-30T02:38:55.562Z,820.50
2017-07-30T02:39:56.175Z,820.50
2017-07-30T02:40:56.797Z,820.49
2017-07-30T02:41:57.412Z,820.46
2017-07-30T02:42:58.030Z,820.44
2017-07-30T02:43:58.982Z,820.47
2017-07-30T02:44:59.597Z,820.49
2017-07-30T02:46:00.214Z,820.49
2017-07-30T02:47:00.830Z,820.50
2017-07-30T02:48:01.446Z,820.48
2017-07-30T02:49:02.317Z,820.46
2017-07-30T02:50:02.965Z,820.47
2017-07-30T02:51:03.581Z,820.47
2017-07-30T02:52:04.230Z,820.47
2017-07-30T02:53:04.847Z,820.46
2017-07-30T02:54:05.713Z,820.48
2017-07-30T02:55:06.329Z,820.48
2017-07-30T02:56:06.945Z,820.49
2017-07-30T02:57:07.595Z,820.50
2017-07-30T02:58:08.213Z,820.51
2017-07-30T02:59:09.164Z,820.48
2017-07-30T03:00:09.782Z,820.52
2017-07-30T03:01:10.399Z,820.48
2017-07-30T03:02:11.015Z,820.47
2017-07-30T03:03:11.632Z,820.46
2017-07-30T03:04:12.499Z,820.42
2017-07-30T03:05:13.117Z,820.43
2017-07-30T03:06:13.983Z,820.40
2017-07-30T03:07:14.603Z,820.38
2017-07-30T03:08:15.221Z,820.40
2017-07-30T03:09:15.837Z,820.43
2017-07-30T03:10:16.455Z,820.39
2017-07-30T03:11:17.325Z,820.42
2017-07-30T03:12:17.940Z,820.41
2017-07-30T03:13:18.557Z,820.39
2017-07-30T03:14:19.179Z,820.40
2017-07-30T03:15:19.797Z,820.38
2017-07-30T03:16:20.661Z,820.37
2017-07-30T03:17:21.277Z,820.39
2017-07-30T03:18:21.903Z,820.40
2017-07-30T03:19:22.517Z,820.40
2017-07-30T03:20:23.133Z,820.39
2017-07-30T03:21:24.002Z,820.39
2017-07-30T03:22:24.617Z,820.36
2017-07-30T03:23:25.232Z,820.33
2017-07-30T03:24:25.849Z,820.38
2017-07-30T03:25:26.463Z,820.36
2017-07-30T03:26:27.338Z,820.36
2017-07-30T03:27:27.968Z,820.39
2017-07-30T03:28:28.573Z,820.41
2017-07-30T03:29:29.195Z,820.42
2017-07-30T03:30:29.806Z,820.40
2017-07-30T03:31:30.728Z,820.41
2017-07-30T03:32:31.379Z,820.42
2017-07-30T03:33:31.999Z,820.42
2017-07-30T03:34:32.868Z,820.41
2017-07-30T03:35:33.784Z,820.42
2017-07-30T03:36:34.401Z,820.43
2017-07-30T03:37:35.055Z,820.42
2017-07-30T03:38:35.672Z,820.42
2017-07-30T03:39:36.288Z,820.44
2017-07-30T03:40:37.159Z,820.43
2017-07-30T03:41:37.808Z,820.46
2017-07-30T03:42:38.424Z,820.43
2017-07-30T03:43:39.041Z,820.43
2017-07-30T03:44:39.660Z,820.45
2017-07-30T03:45:40.528Z,820.42
2017-07-30T03:46:41.145Z,820.45
2017-07-30T03:47:41.767Z,820.41
2017-07-30T03:48:42.382Z,820.40
2017-07-30T03:49:43.001Z,820.39
2017-07-30T03:50:43.863Z,820.45
2017-07-30T03:51:44.478Z,820.41
2017-07-30T03:52:45.136Z,820.38
2017-07-30T03:53:45.790Z,820.41
2017-07-30T03:54:46.403Z,820.37
2017-07-30T03:55:47.275Z,820.36
2017-07-30T03:56:47.891Z,820.36
2017-07-30T03:57:48.515Z,820.34
2017-07-30T03:58:49.165Z,820.33
2017-07-30T03:59:49.788Z,820.32
2017-07-30T04:00:50.652Z,820.33
2017-07-30T04:01:51.275Z,820.33
2017-07-30T04:02:51.892Z,820.30
2017-07-30T04:03:52.758Z,820.32
2017-07-30T04:04:53.627Z,820.35
2017-07-30T04:05:54.245Z,820.34
2017-07-30T04:06:54.863Z,820.36
2017-07-30T04:07:55.482Z,820.36
2017-07-30T04:08:56.131Z,820.37
2017-07-30T04:09:56.994Z,820.33
2017-07-30T04:10:57.609Z,820.35
2017-07-30T04:11:58.225Z,820.35
2017-07-30T04:12:58.842Z,820.33
2017-07-30T04:13:59.458Z,820.33
2017-07-30T04:15:00.324Z,820.34
2017-07-30T04:16:00.939Z,820.35
2017-07-30T04:17:01.586Z,820.37
2017-07-30T04:18:02.203Z,820.33
2017-07-30T04:19:02.823Z,820.37
2017-07-30T04:20:03.738Z,820.39
2017-07-30T04:21:04.356Z,820.37
2017-07-30T04:22:04.972Z,820.39
2017-07-30T04:23:05.621Z,820.39
2017-07-30T04:24:06.237Z,820.39
2017-07-30T04:25:07.105Z,820.39
2017-07-30T04:26:07.724Z,820.40
2017-07-30T04:27:08.340Z,820.38
2017-07-30T04:28:08.957Z,820.33
2017-07-30T04:29:09.576Z,820.35
2017-07-30T04:30:10.444Z,820.35
2017-07-30T04:31:11.070Z,820.34
2017-07-30T04:32:11.685Z,820.36
2017-07-30T04:33:12.557Z,820.33
2017-07-30T04:34:13.171Z,820.31
2017-07-30T04:35:13.793Z,820.31
2017-07-30T04:36:14.409Z,820.29
2017-07-30T04:37:15.280Z,820.30
2017-07-30T04:38:16.226Z,820.30
2017-07-30T04:39:16.896Z,820.29
2017-07-30T04:40:17.811Z,820.28
2017-07-30T04:41:18.429Z,820.32
2017-07-30T04:42:19.311Z,820.26
2017-07-30T04:43:19.918Z,820.24
2017-07-30T04:44:20.532Z,820.27
2017-07-30T04:45:21.150Z,820.26
2017-07-30T04:46:21.769Z,820.28
2017-07-30T04:47:22.645Z,820.28
2017-07-30T04:48:23.510Z,820.29
2017-07-30T04:49:24.128Z,820.30
2017-07-30T04:50:25.045Z,820.30
2017-07-30T04:51:25.667Z,820.28
2017-07-30T04:52:26.291Z,820.28
2017-07-30T04:53:27.210Z,820.27
2017-07-30T04:54:27.829Z,820.29
2017-07-30T04:55:28.448Z,820.29
2017-07-30T04:56:29.320Z,820.27
2017-07-30T04:57:29.999Z,820.27
2017-07-30T04:58:30.592Z,820.24
2017-07-30T04:59:31.209Z,820.21
2017-07-30T05:00:31.832Z,820.21
2017-07-30T05:01:32.696Z,820.23
2017-07-30T05:02:33.614Z,820.21
2017-07-30T05:03:34.230Z,820.22
2017-07-30T05:04:34.849Z,820.21
2017-07-30T05:05:35.469Z,820.25
2017-07-30T05:06:36.372Z,820.24
2017-07-30T05:07:36.989Z,820.22
2017-07-30T05:08:37.612Z,820.21
2017-07-30T05:09:38.483Z,820.26
2017-07-30T05:10:39.098Z,820.24
2017-07-30T05:11:39.715Z,820.25
2017-07-30T05:12:40.332Z,820.25
2017-07-30T05:13:40.952Z,820.26
2017-07-30T05:14:41.869Z,820.26
2017-07-30T05:15:42.487Z,820.29
2017-07-30T05:16:43.103Z,820.24
2017-07-30T05:17:43.720Z,820.25
2017-07-30T05:18:44.343Z,820.25
2017-07-30T05:19:45.260Z,820.19
2017-07-30T05:20:45.880Z,820.22
2017-07-30T05:21:46.801Z,820.22
2017-07-30T05:22:47.416Z,820.19
2017-07-30T05:23:48.033Z,820.19
2017-07-30T05:24:48.651Z,820.19
2017-07-30T05:25:49.520Z,820.21
2017-07-30T05:26:50.440Z,820.16
2017-07-30T05:27:51.058Z,820.18
2017-07-30T05:28:51.718Z,820.18
2017-07-30T05:29:52.334Z,820.22
2017-07-30T05:30:53.248Z,820.18
2017-07-30T05:31:53.871Z,820.24
2017-07-30T05:32:54.487Z,820.25
2017-07-30T05:33:55.109Z,820.24
2017-07-30T05:34:55.725Z,820.29
2017-07-30T05:35:56.597Z,820.30
2017-07-30T05:36:57.212Z,820.28
2017-07-30T05:37:57.832Z,820.25
2017-07-30T05:38:58.700Z,820.25
2017-07-30T05:39:59.574Z,820.25
2017-07-30T05:41:00.234Z,820.26
2017-07-30T05:42:00.853Z,820.27
2017-07-30T05:43:01.467Z,820.24
2017-07-30T05:44:02.122Z,820.26
2017-07-30T05:45:03.038Z,820.29
2017-07-30T05:46:03.660Z,820.22
2017-07-30T05:47:04.275Z,820.26
2017-07-30T05:48:04.928Z,820.26
2017-07-30T05:49:05.551Z,820.22
2017-07-30T05:50:06.468Z,820.22
2017-07-30T05:51:07.152Z,820.22
2017-07-30T05:52:07.789Z,820.20
2017-07-30T05:53:08.413Z,820.16
2017-07-30T05:54:09.331Z,820.17
2017-07-30T05:55:10.198Z,820.12
2017-07-30T05:56:10.884Z,820.12
2017-07-30T05:57:11.502Z,820.12
2017-07-30T05:58:12.119Z,820.07
2017-07-30T05:59:12.736Z,820.10
2017-07-30T06:00:13.653Z,820.09
2017-07-30T06:01:14.269Z,820.08
2017-07-30T06:02:14.920Z,820.05
2017-07-30T06:03:15.570Z,820.04
2017-07-30T06:04:16.191Z,820.07
2017-07-30T06:05:17.059Z,820.02
2017-07-30T06:06:17.709Z,820.04
2017-07-30T06:07:18.347Z,820.03
2017-07-30T06:08:19.031Z,820.04
2017-07-30T06:09:19.687Z,820.05
2017-07-30T06:10:20.552Z,819.99
2017-07-30T06:11:21.173Z,820.03
2017-07-30T06:12:21.788Z,820.01
2017-07-30T06:13:22.454Z,820.00
2017-07-30T06:14:23.074Z,819.98
2017-07-30T06:15:23.995Z,820.03
2017-07-30T06:16:24.613Z,820.04
2017-07-30T06:17:25.238Z,820.01
2017-07-30T06:18:26.157Z,820.01
2017-07-30T06:19:27.110Z,820.00
2017-07-30T06:20:27.731Z,819.95
2017-07-30T06:21:28.351Z,819.99
2017-07-30T06:22:28.970Z,819.97
2017-07-30T06:23:29.653Z,820.00
2017-07-30T06:24:30.567Z,820.00
2017-07-30T06:25:31.229Z,820.01
2017-07-30T06:26:31.889Z,820.01
2017-07-30T06:27:32.524Z,820.02
2017-07-30T06:28:33.142Z,820.00
2017-07-30T06:29:34.059Z,820.02
2017-07-30T06:30:34.678Z,820.00
2017-07-30T06:31:35.312Z,820.03
2017-07-30T06:32:35.937Z,820.01
2017-07-30T06:33:36.551Z,820.02
2017-07-30T06:35:52.901Z,820.03
2017-07-30T06:36:53.525Z,820.02
2017-07-30T06:37:54.150Z,820.04
2017-07-30T06:38:54.766Z,820.04
2017-07-30T06:39:55.385Z,820.06
2017-07-30T06:40:56.328Z,820.06
2017-07-30T06:41:56.946Z,820.05
2017-07-30T06:42:57.570Z,820.08
2017-07-30T06:43:58.223Z,820.09
2017-07-30T06:44:58.881Z,820.10
2017-07-30T06:45:59.791Z,820.12
2017-07-30T06:47:00.412Z,820.11
2017-07-30T06:48:01.030Z,820.13
2017-07-30T06:49:01.685Z,820.13
2017-07-30T06:50:02.312Z,820.15
2017-07-30T06:51:03.181Z,820.20
2017-07-30T06:52:03.800Z,820.18
2017-07-30T06:53:04.417Z,820.20
2017-07-30T06:54:05.036Z,820.21
2017-07-30T06:55:05.656Z,820.23
2017-07-30T06:56:06.636Z,820.19
2017-07-30T06:57:07.256Z,820.23
2017-07-30T06:58:08.174Z,820.24
2017-07-30T07:00:24.280Z,820.31
2017-07-30T07:01:24.903Z,820.31
2017-07-30T07:02:25.529Z,820.32
2017-07-30T07:03:26.449Z,820.33
2017-07-30T07:04:27.071Z,820.31
2017-07-30T07:05:27.689Z,820.30
2017-07-30T07:06:28.306Z,820.33
2017-07-30T07:07:28.949Z,820.29
2017-07-30T07:08:29.824Z,820.29
2017-07-30T07:09:30.440Z,820.35
2017-07-30T07:10:31.069Z,820.31
2017-07-30T07:11:31.686Z,820.36
2017-07-30T07:12:32.608Z,820.37
2017-07-30T07:13:33.538Z,820.36
2017-07-30T07:14:34.158Z,820.34
2017-07-30T07:15:34.779Z,820.35
2017-07-30T07:16:35.403Z,820.35
2017-07-30T07:17:36.053Z,820.35
2017-07-30T07:18:36.979Z,820.33
2017-07-30T07:19:37.636Z,820.34
2017-07-30T07:20:38.257Z,820.35
2017-07-30T07:21:38.878Z,820.29
2017-07-30T07:22:39.498Z,820.32
2017-07-30T07:23:40.372Z,820.33
2017-07-30T07:24:40.991Z,820.28
2017-07-30T07:25:41.612Z,820.29
2017-07-30T07:26:42.232Z,820.29
2017-07-30T07:27:43.103Z,820.28
2017-07-30T07:28:43.723Z,820.30
2017-07-30T07:29:44.376Z,820.27
2017-07-30T07:30:45.002Z,820.23
2017-07-30T07:31:45.626Z,820.22
2017-07-30T07:32:46.550Z,820.24
2017-07-30T07:33:47.169Z,820.23
2017-07-30T07:34:47.828Z,820.23
2017-07-30T07:35:48.445Z,820.24
2017-07-30T07:36:49.068Z,820.21
2017-07-30T07:37:49.945Z,820.19
2017-07-30T07:38:50.565Z,820.20
2017-07-30T07:39:51.191Z,820.22
2017-07-30T07:40:51.808Z,820.20
2017-07-30T07:41:52.437Z,820.22
2017-07-30T07:42:53.306Z,820.19
2017-07-30T07:43:53.932Z,820.18
2017-07-30T07:44:54.549Z,820.17
2017-07-30T07:45:55.169Z,820.19
2017-07-30T07:46:55.791Z,820.16
2017-07-30T07:47:56.716Z,820.16
2017-07-30T07:48:57.336Z,820.17
2017-07-30T07:49:57.958Z,820.11
2017-07-30T07:50:58.584Z,820.13
2017-07-30T07:51:59.201Z,820.11
2017-07-30T07:53:00.076Z,820.12
2017-07-30T07:54:00.946Z,820.12
2017-07-30T07:55:01.568Z,820.11
2017-07-30T07:56:02.188Z,820.10
2017-07-30T07:57:02.810Z,820.09
2017-07-30T07:58:03.685Z,820.08
2017-07-30T07:59:04.309Z,820.10
2017-07-30T08:00:04.927Z,820.13
2017-07-30T08:01:05.548Z,820.09
2017-07-30T08:02:06.176Z,820.12
2017-07-30T08:03:07.044Z,820.11
2017-07-30T08:04:07.665Z,820.12
2017-07-30T08:05:08.298Z,820.13
2017-07-30T08:06:08.915Z,820.13
2017-07-30T08:07:09.542Z,820.14
2017-07-30T08:08:10.415Z,820.13
2017-07-30T08:09:11.032Z,820.15
2017-07-30T08:10:11.653Z,820.14
2017-07-30T08:11:12.276Z,820.16
2017-07-30T08:12:12.899Z,820.17
2017-07-30T08:13:13.807Z,820.17
2017-07-30T08:14:14.459Z,820.16
2017-07-30T08:15:15.381Z,820.20
2017-07-30T08:16:16.004Z,820.21
2017-07-30T08:17:16.877Z,820.19
2017-07-30T08:18:17.499Z,820.23
2017-07-30T08:19:18.122Z,820.25
2017-07-30T08:20:18.998Z,820.28
2017-07-30T08:21:19.621Z,820.28
2017-07-30T08:22:20.239Z,820.31
2017-07-30T08:23:21.163Z,820.29
2017-07-30T08:24:21.785Z,820.29
2017-07-30T08:25:22.657Z,820.26
2017-07-30T08:26:23.284Z,820.25
2017-07-30T08:27:23.939Z,820.27
2017-07-30T08:28:24.560Z,820.27
2017-07-30T08:29:25.482Z,820.27
2017-07-30T08:30:26.356Z,820.24
2017-07-30T08:31:27.228Z,820.25
2017-07-30T08:32:27.856Z,820.22
2017-07-30T08:33:28.482Z,820.20
2017-07-30T08:34:29.100Z,820.23
2017-07-30T08:35:29.756Z,820.21
2017-07-30T08:36:30.629Z,820.20
2017-07-30T08:37:31.253Z,820.18
2017-07-30T08:38:31.875Z,820.21
2017-07-30T08:39:32.500Z,820.19
2017-07-30T08:40:33.119Z,820.20
2017-07-30T08:41:34.043Z,820.20
2017-07-30T08:42:34.705Z,820.21
2017-07-30T08:43:35.327Z,820.19
2017-07-30T08:44:35.954Z,820.20
2017-07-30T08:45:36.572Z,820.24
2017-07-30T08:46:37.447Z,820.22
2017-07-30T08:47:38.070Z,820.25
2017-07-30T08:48:38.732Z,820.24
2017-07-30T08:49:39.352Z,820.24
2017-07-30T08:50:40.006Z,820.26
2017-07-30T08:51:40.928Z,820.25
2017-07-30T08:52:41.557Z,820.20
2017-07-30T08:53:42.181Z,820.20
2017-07-30T08:54:42.807Z,820.23
2017-07-30T08:55:43.426Z,820.19
2017-07-30T08:56:44.352Z,820.21
2017-07-30T08:57:45.005Z,820.17
2017-07-30T08:58:45.630Z,820.17
2017-07-30T08:59:46.253Z,820.19
2017-07-30T09:00:46.879Z,820.17
2017-07-30T09:01:47.834Z,820.21
2017-07-30T09:02:48.458Z,820.17
2017-07-30T09:03:49.083Z,820.16
2017-07-30T09:04:49.706Z,820.22
2017-07-30T09:05:50.327Z,820.20
2017-07-30T09:06:51.201Z,820.20
2017-07-30T09:07:51.826Z,820.16
2017-07-30T09:08:52.450Z,820.17
2017-07-30T09:09:53.107Z,820.15
2017-07-30T09:10:53.764Z,820.17
2017-07-30T09:11:54.685Z,820.20
2017-07-30T09:12:55.307Z,820.24
2017-07-30T09:13:55.928Z,820.18
2017-07-30T09:14:56.554Z,820.17
2017-07-30T09:15:57.178Z,820.17
2017-07-30T09:16:58.091Z,820.15
2017-07-30T09:17:58.711Z,820.11
2017-07-30T09:18:59.333Z,820.10
2017-07-30T09:19:59.957Z,820.07
2017-07-30T09:21:00.611Z,820.03
2017-07-30T09:22:01.490Z,820.04
2017-07-30T09:23:02.120Z,820.03
2017-07-30T09:24:02.740Z,820.01
2017-07-30T09:25:03.396Z,820.05
2017-07-30T09:26:04.018Z,820.01
2017-07-30T09:27:04.948Z,820.04
2017-07-30T09:28:05.569Z,820.03
2017-07-30T09:29:06.196Z,820.03
2017-07-30T09:30:06.821Z,820.04
2017-07-30T09:31:07.440Z,820.03
2017-07-30T09:32:08.370Z,820.06
2017-07-30T09:33:08.997Z,820.11
2017-07-30T09:34:09.623Z,820.06
2017-07-30T09:35:10.278Z,820.05
2017-07-30T09:36:10.909Z,820.02
2017-07-30T09:37:11.872Z,820.05
2017-07-30T09:38:12.494Z,819.97
2017-07-30T09:39:13.123Z,819.98
2017-07-30T09:40:13.744Z,820.01
2017-07-30T09:41:14.369Z,819.96
2017-07-30T09:42:15.239Z,819.98
2017-07-30T09:43:15.870Z,819.94
2017-07-30T09:44:16.491Z,819.96
2017-07-30T09:45:17.116Z,819.96
2017-07-30T09:46:17.743Z,819.99
2017-07-30T09:47:18.617Z,820.00
2017-07-30T09:48:19.240Z,820.00
2017-07-30T09:49:19.870Z,819.96
2017-07-30T09:50:20.498Z,819.96
2017-07-30T09:51:21.118Z,819.99
2017-07-30T09:52:21.992Z,819.95
2017-07-30T09:53:22.622Z,819.98
2017-07-30T09:54:23.243Z,819.98
2017-07-30T09:55:23.867Z,819.97
2017-07-30T09:56:24.491Z,819.95
2017-07-30T09:57:25.415Z,819.91
2017-07-30T09:58:26.039Z,819.89
2017-07-30T09:59:26.662Z,819.90
2017-07-30T10:00:27.287Z,819.90
2017-07-30T10:01:27.916Z,819.88
2017-07-30T10:02:28.838Z,819.84
2017-07-30T10:03:29.496Z,819.86
2017-07-30T10:04:30.119Z,819.86
2017-07-30T10:05:30.744Z,819.80
2017-07-30T10:06:31.373Z,819.81
2017-07-30T10:07:32.247Z,819.82
2017-07-30T10:08:32.878Z,819.76
2017-07-30T10:09:33.498Z,819.77
2017-07-30T10:10:34.122Z,819.78
2017-07-30T10:11:34.748Z,819.75
2017-07-30T10:12:35.624Z,819.71
2017-07-30T10:13:36.249Z,819.72
2017-07-30T10:14:36.873Z,819.75
2017-07-30T10:15:37.499Z,819.72
2017-07-30T10:16:38.121Z,819.67
2017-07-30T10:17:39.047Z,819.72
2017-07-30T10:18:39.707Z,819.73
2017-07-30T10:19:40.330Z,819.68
2017-07-30T10:20:40.957Z,819.62
2017-07-30T10:21:41.582Z,819.58
2017-07-30T10:22:42.466Z,819.63
2017-07-30T10:23:43.090Z,819.62
2017-07-30T10:24:43.712Z,819.61
2017-07-30T10:25:44.337Z,819.63
2017-07-30T10:26:44.962Z,819.58
2017-07-30T10:27:45.887Z,819.63
2017-07-30T10:28:46.513Z,819.63
2017-07-30T10:29:47.175Z,819.66
2017-07-30T10:30:47.797Z,819.62
2017-07-30T10:31:48.422Z,819.63
2017-07-30T10:32:49.347Z,819.65
2017-07-30T10:33:49.974Z,819.67
2017-07-30T10:34:50.599Z,819.70
2017-07-30T10:35:51.224Z,819.67
2017-07-30T10:36:51.850Z,819.71
2017-07-30T10:37:52.774Z,819.69
2017-07-30T10:38:53.406Z,819.68
2017-07-30T10:39:54.065Z,819.65
2017-07-30T10:40:54.696Z,819.63
2017-07-30T10:41:55.327Z,819.63
2017-07-30T10:42:56.232Z,819.66
2017-07-30T10:43:56.856Z,819.66
2017-07-30T10:44:57.482Z,819.65
2017-07-30T10:45:58.113Z,819.61
2017-07-30T10:46:58.737Z,819.57
2017-07-30T10:47:59.663Z,819.61
2017-07-30T10:49:00.288Z,819.53
2017-07-30T10:50:00.918Z,819.55
2017-07-30T10:51:01.541Z,819.56
2017-07-30T10:52:02.175Z,819.62
2017-07-30T10:53:03.049Z,819.58
2017-07-30T10:54:03.683Z,819.58
2017-07-30T10:55:04.307Z,819.59
2017-07-30T10:56:04.931Z,819.58
2017-07-30T10:57:05.561Z,819.57
2017-07-30T10:58:06.472Z,819.54
2017-07-30T10:59:07.096Z,819.46
2017-07-30T11:00:07.726Z,819.46
2017-07-30T11:01:08.354Z,819.42
2017-07-30T11:02:08.979Z,819.41
2017-07-30T11:03:09.906Z,819.36
2017-07-30T11:04:10.531Z,819.34
2017-07-30T11:05:11.162Z,819.31
2017-07-30T11:06:11.786Z,819.29
2017-07-30T11:07:12.410Z,819.30
2017-07-30T11:08:13.337Z,819.35
2017-07-30T11:09:13.964Z,819.39
2017-07-30T11:10:14.589Z,819.42
2017-07-30T11:11:15.217Z,819.42
2017-07-30T11:12:15.841Z,819.49
2017-07-30T11:13:16.717Z,819.49
2017-07-30T11:14:17.378Z,819.48
2017-07-30T11:15:18.002Z,819.47
2017-07-30T11:16:18.626Z,819.53
2017-07-30T11:17:19.254Z,819.53
2017-07-30T11:18:20.133Z,819.59
2017-07-30T11:19:20.756Z,819.54
2017-07-30T11:20:21.383Z,819.57
2017-07-30T11:21:22.042Z,819.54
2017-07-30T11:22:22.669Z,819.54
2017-07-30T11:23:23.600Z,819.51
2017-07-30T11:24:24.224Z,819.51
2017-07-30T11:25:24.853Z,819.48
2017-07-30T11:26:25.481Z,819.54
2017-07-30T11:27:26.140Z,819.50
2017-07-30T11:28:27.019Z,819.46
2017-07-30T11:29:27.652Z,819.53
2017-07-30T11:30:28.278Z,819.49
2017-07-30T11:31:28.904Z,819.49
2017-07-30T11:32:29.530Z,819.51
2017-07-30T11:33:30.409Z,819.55
2017-07-30T11:34:31.037Z,819.50
2017-07-30T11:35:31.668Z,819.57
2017-07-30T11:36:32.295Z,819.52
2017-07-30T11:37:32.962Z,819.50
2017-07-30T11:38:33.884Z,819.54
2017-07-30T11:39:34.518Z,819.52
2017-07-30T11:40:35.146Z,819.49
2017-07-30T11:41:35.773Z,819.52
2017-07-30T11:42:36.400Z,819.52
2017-07-30T11:43:37.332Z,819.49
2017-07-30T11:44:37.955Z,819.56
2017-07-30T11:45:38.583Z,819.54
2017-07-30T11:46:39.211Z,819.61
2017-07-30T11:47:39.839Z,819.68
2017-07-30T11:48:40.765Z,819.76
2017-07-30T11:49:41.392Z,819.61
2017-07-30T11:50:42.018Z,819.69
2017-07-30T11:51:42.645Z,819.70
2017-07-30T11:52:43.279Z,819.76
2017-07-30T11:53:44.204Z,819.77
2017-07-30T11:54:44.864Z,819.77
2017-07-30T11:55:45.496Z,819.87
2017-07-30T11:56:46.119Z,819.83
2017-07-30T11:57:46.745Z,819.89
2017-07-30T11:58:47.676Z,819.90
2017-07-30T11:59:48.299Z,819.96
2017-07-30T12:00:48.924Z,819.98
2017-07-30T12:01:49.552Z,820.04
2017-07-30T12:02:50.171Z,820.08
2017-07-30T12:03:51.049Z,820.06
2017-07-30T12:04:51.674Z,820.01
2017-07-30T12:05:52.331Z,820.08
2017-07-30T12:06:52.955Z,820.05
2017-07-30T12:07:53.578Z,820.04
2017-07-30T12:08:54.501Z,820.07
2017-07-30T12:09:55.126Z,820.06
2017-07-30T12:10:55.745Z,820.10
2017-07-30T12:11:56.368Z,820.15
2017-07-30T12:12:56.991Z,820.24
2017-07-30T12:13:57.915Z,820.21
2017-07-30T12:14:58.571Z,820.28
2017-07-30T12:15:59.193Z,820.39
2017-07-30T12:16:59.816Z,820.45
2017-07-30T12:18:00.737Z,820.54
2017-07-30T12:19:01.360Z,820.54
2017-07-30T12:20:01.982Z,820.66
2017-07-30T12:21:02.610Z,820.66
2017-07-30T12:22:03.267Z,820.65
2017-07-30T12:23:04.198Z,820.49
2017-07-30T12:24:05.095Z,820.44
2017-07-30T12:25:05.968Z,820.36
2017-07-30T12:26:06.589Z,820.27
2017-07-30T12:27:07.463Z,820.27
2017-07-30T12:28:08.086Z,820.27
2017-07-30T12:29:09.010Z,820.25
2017-07-30T12:30:09.638Z,820.14
2017-07-30T12:31:10.294Z,820.10
2017-07-30T12:32:10.916Z,819.96
2017-07-30T12:33:11.539Z,819.89
2017-07-30T12:34:12.411Z,819.92
2017-07-30T12:35:13.336Z,819.94
2017-07-30T12:36:13.966Z,819.92
2017-07-30T12:37:14.621Z,819.91
2017-07-30T12:38:15.245Z,819.91
2017-07-30T12:39:15.868Z,819.97